createdAt,value
2022-09-02T00:01:02.501Z,0.57
2022-09-02T00:06:07.536Z,0.75
2022-09-02T00:11:18.386Z,0.63
2022-09-02T00:16:24.692Z,0.70
2022-09-02T00:21:30.103Z,1.00
2022-09-02T00:26:37.424Z,0.65
2022-09-02T00:31:42.991Z,0.80
2022-09-02T00:36:47.780Z,0.95
2022-09-02T00:41:55.632Z,1.00
2022-09-02T00:47:00.341Z,0.90
2022-09-02T00:52:10.559Z,0.60
2022-09-02T00:57:23.649Z,0.90
2022-09-02T01:02:31.818Z,0.80
2022-09-02T01:07:39.129Z,1.00
2022-09-02T01:12:47.522Z,0.80
2022-09-02T01:17:54.818Z,0.90
2022-09-02T01:23:02.636Z,0.90
2022-09-02T01:28:10.352Z,0.80
2022-09-02T01:33:18.220Z,0.80
2022-09-02T01:38:27.016Z,0.95
2022-09-02T01:43:32.643Z,0.88
2022-09-02T01:48:38.212Z,0.90
2022-09-02T01:53:45.626Z,0.70
2022-09-02T01:58:50.258Z,0.80
2022-09-02T02:03:57.455Z,0.90
2022-09-02T02:09:05.358Z,1.10
2022-09-02T02:14:11.103Z,0.80
2022-09-02T02:19:22.899Z,0.77
2022-09-02T02:24:30.825Z,0.73
2022-09-02T02:29:35.538Z,0.70
2022-09-02T02:34:40.432Z,0.98
2022-09-02T02:39:47.758Z,0.80
2022-09-02T02:44:52.745Z,0.85
2022-09-02T02:49:57.526Z,0.93
2022-09-02T02:55:06.684Z,0.90
2022-09-02T03:00:15.624Z,0.95
2022-09-02T03:05:20.765Z,0.90
2022-09-02T03:10:29.729Z,0.90
2022-09-02T03:15:34.958Z,1.00
2022-09-02T03:20:39.689Z,1.00
2022-09-02T03:25:49.067Z,1.10
2022-09-02T03:31:18.897Z,1.27
2022-09-02T03:36:26.060Z,1.20
2022-09-02T03:41:34.151Z,1.10
2022-09-02T03:46:39.188Z,1.10
2022-09-02T03:51:45.921Z,1.17
2022-09-02T03:56:53.382Z,1.10
2022-09-02T04:01:58.824Z,1.20
2022-09-02T04:07:04.470Z,1.10
2022-09-02T04:12:11.803Z,1.10
2022-09-02T04:17:16.562Z,1.17
2022-09-02T04:22:21.441Z,1.08
2022-09-02T04:27:29.694Z,1.00
2022-09-02T04:32:39.775Z,0.90
2022-09-02T04:37:47.310Z,1.10
2022-09-02T04:42:55.754Z,1.23
2022-09-02T04:48:02.686Z,1.30
2022-09-02T04:53:08.881Z,1.27
2022-09-02T04:58:16.790Z,1.23
2022-09-02T05:03:24.810Z,1.13
2022-09-02T05:08:30.632Z,1.13
2022-09-02T05:13:39.885Z,1.20
2022-09-02T05:18:45.551Z,1.30
2022-09-02T05:23:50.660Z,1.08
2022-09-02T05:29:02.731Z,1.27
2022-09-02T05:34:07.664Z,1.17
2022-09-02T05:39:13.286Z,1.20
2022-09-02T05:44:20.520Z,1.10
2022-09-02T05:49:27.019Z,1.50
2022-09-02T05:54:41.300Z,1.20
2022-09-02T05:59:56.178Z,1.20
2022-09-02T06:05:04.503Z,1.40
2022-09-02T06:10:09.832Z,1.30
2022-09-02T06:15:17.728Z,1.50
2022-09-02T06:20:22.511Z,1.70
2022-09-02T06:25:27.586Z,1.48
2022-09-02T06:30:35.099Z,1.40
2022-09-02T06:35:42.439Z,1.10
2022-09-02T06:40:50.701Z,1.13
2022-09-02T06:46:02.639Z,1.20
2022-09-02T06:51:08.066Z,1.10
2022-09-02T06:56:13.102Z,1.00
2022-09-02T07:01:24.659Z,1.00
2022-09-02T07:06:29.706Z,1.10
2022-09-02T07:11:35.049Z,0.73
2022-09-02T07:16:50.611Z,1.10
2022-09-02T07:21:56.017Z,0.90
2022-09-02T07:27:01.276Z,0.80
2022-09-02T07:32:09.015Z,0.73
2022-09-02T07:37:13.853Z,0.82
2022-09-02T07:42:20.625Z,0.90
2022-09-02T07:47:28.754Z,0.80
2022-09-02T07:52:33.768Z,0.65
2022-09-02T07:57:38.570Z,0.80
2022-09-02T08:02:46.991Z,0.80
2022-09-02T08:07:57.062Z,0.73
2022-09-02T08:13:03.371Z,0.82
2022-09-02T08:18:14.506Z,0.70
2022-09-02T08:23:36.774Z,0.80
2022-09-02T08:28:42.200Z,0.50
2022-09-02T08:33:49.448Z,0.60
2022-09-02T08:38:55.833Z,0.50
2022-09-02T08:44:02.929Z,0.50
2022-09-02T08:49:14.368Z,0.47
2022-09-02T08:59:31.647Z,0.40
2022-09-02T09:05:00.612Z,0.40
2022-09-02T09:10:12.322Z,0.50
2022-09-02T09:15:24.901Z,0.43
2022-09-02T09:20:35.777Z,0.50
2022-09-02T09:25:40.279Z,0.47
2022-09-02T09:30:44.892Z,0.50
2022-09-02T09:35:58.780Z,0.43
2022-09-02T09:41:16.618Z,0.50
2022-09-02T09:46:33.078Z,0.40
2022-09-02T09:51:49.799Z,0.50
2022-09-02T09:56:55.790Z,0.30
2022-09-02T10:02:01.278Z,0.47
2022-09-02T10:07:13.662Z,0.30
2022-09-02T10:12:34.595Z,0.40
2022-09-02T10:17:50.156Z,0.40
2022-09-02T10:23:12.942Z,0.52
2022-09-02T10:28:33.904Z,0.40
2022-09-02T10:33:49.042Z,0.30
2022-09-02T10:38:56.487Z,0.43
2022-09-02T10:44:22.060Z,0.38
2022-09-02T10:49:51.834Z,0.30
2022-09-02T10:55:09.991Z,0.50
2022-09-02T11:00:18.666Z,0.38
2022-09-02T11:05:28.422Z,0.50
2022-09-02T11:10:41.176Z,0.43
2022-09-02T11:15:51.764Z,0.50
2022-09-02T11:21:03.784Z,0.60
2022-09-02T11:26:18.741Z,0.50
2022-09-02T11:31:34.696Z,0.60
2022-09-02T11:36:42.129Z,0.50
2022-09-02T11:42:04.393Z,0.50
2022-09-02T11:47:46.300Z,0.40
2022-09-02T11:53:07.111Z,0.47
2022-09-02T11:58:14.388Z,0.30
2022-09-02T12:04:06.521Z,0.30
2022-09-02T12:09:05.856Z,0.50
2022-09-02T12:14:34.759Z,0.30
2022-09-02T12:19:45.792Z,0.28
2022-09-02T12:24:53.838Z,0.30
2022-09-02T12:30:02.010Z,0.40
2022-09-02T12:35:17.252Z,0.40
2022-09-02T12:40:32.090Z,0.32
2022-09-02T12:45:45.926Z,0.10
2022-09-02T12:50:57.726Z,0.30
2022-09-02T12:56:05.674Z,0.25
2022-09-02T13:01:22.284Z,0.30
2022-09-02T13:06:36.563Z,0.40
2022-09-02T13:12:16.325Z,0.28
2022-09-02T13:17:48.784Z,0.40
2022-09-02T13:23:11.915Z,0.47
2022-09-02T13:28:54.390Z,0.30
2022-09-02T13:34:08.203Z,0.30
2022-09-02T13:39:15.318Z,0.38
2022-09-02T13:44:24.892Z,0.38
2022-09-02T13:49:38.131Z,0.25
2022-09-02T13:54:46.692Z,0.20
2022-09-02T13:59:54.341Z,0.30
2022-09-02T14:05:07.927Z,0.20
2022-09-02T14:10:15.607Z,0.20
2022-09-02T14:15:27.810Z,0.30
2022-09-02T14:20:35.500Z,0.35
2022-09-02T14:25:42.653Z,0.30
2022-09-02T14:30:58.185Z,0.30
2022-09-02T14:36:07.872Z,0.20
2022-09-02T14:41:16.024Z,0.30
2022-09-02T14:46:28.707Z,0.30
2022-09-02T14:51:40.413Z,0.40
2022-09-02T14:56:50.780Z,0.28
2022-09-02T15:01:57.639Z,0.30
2022-09-02T15:07:04.782Z,0.40
2022-09-02T15:12:11.167Z,0.20
2022-09-02T15:17:18.746Z,0.35
2022-09-02T15:22:38.598Z,0.40
2022-09-02T15:27:45.772Z,0.40
2022-09-02T15:32:51.345Z,0.32
2022-09-02T15:37:56.087Z,0.28
2022-09-02T15:43:03.261Z,0.50
2022-09-02T15:48:07.812Z,0.30
2022-09-02T15:53:12.535Z,0.30
2022-09-02T15:58:19.723Z,0.32
2022-09-02T16:03:24.544Z,0.30
2022-09-02T16:08:29.254Z,0.30
2022-09-02T16:13:37.623Z,0.30
2022-09-02T16:18:43.931Z,0.30
2022-09-02T16:23:49.521Z,0.30
2022-09-02T16:28:58.343Z,0.40
2022-09-02T16:34:05.217Z,0.43
2022-09-02T16:39:11.899Z,0.25
2022-09-02T16:44:20.650Z,0.38
2022-09-02T16:49:25.237Z,0.30
2022-09-02T16:54:30.775Z,0.35
2022-09-02T16:59:39.550Z,0.30
2022-09-02T17:04:44.237Z,0.30
2022-09-02T17:09:48.827Z,0.40
2022-09-02T17:14:55.993Z,0.30
2022-09-02T17:20:00.566Z,0.40
2022-09-02T17:25:06.449Z,0.40
2022-09-02T17:30:14.542Z,0.30
2022-09-02T17:35:19.607Z,0.40
2022-09-02T17:40:36.683Z,0.40
2022-09-02T17:45:43.784Z,0.40
2022-09-02T17:50:48.773Z,0.30
2022-09-02T17:55:58.716Z,0.30
2022-09-02T18:01:10.697Z,0.25
2022-09-02T18:06:22.607Z,0.20
2022-09-02T18:11:31.855Z,0.30
2022-09-02T18:16:51.763Z,0.25
2022-09-02T18:22:08.365Z,0.40
2022-09-02T18:27:19.976Z,0.30
2022-09-02T18:32:44.469Z,0.30
2022-09-02T18:38:06.725Z,0.30
2022-09-02T18:43:19.690Z,0.50
2022-09-02T18:48:31.073Z,0.25
2022-09-02T18:53:42.102Z,0.30
2022-09-02T18:58:50.242Z,0.38
2022-09-02T19:04:00.340Z,0.40
2022-09-02T19:09:07.935Z,0.20
2022-09-02T19:14:27.211Z,0.20
2022-09-02T19:19:36.569Z,0.30
2022-09-02T19:24:49.093Z,0.28
2022-09-02T19:30:00.067Z,1.00
2022-09-02T19:35:16.918Z,0.45
2022-09-02T19:40:24.132Z,0.30
2022-09-02T19:45:29.668Z,0.30
2022-09-02T19:50:40.930Z,0.30
2022-09-02T19:55:51.932Z,0.50
2022-09-02T20:00:59.428Z,0.40
2022-09-02T20:06:10.656Z,0.30
2022-09-02T20:11:18.171Z,0.30
2022-09-02T20:16:25.589Z,0.40
2022-09-02T20:21:45.818Z,0.40
2022-09-02T20:26:59.162Z,0.40
2022-09-02T20:32:17.271Z,0.32
2022-09-02T20:37:36.502Z,0.40
2022-09-02T20:43:04.531Z,0.40
2022-09-02T20:48:27.629Z,0.40
2022-09-02T20:54:00.896Z,0.38
2022-09-02T20:59:17.925Z,0.38
2022-09-02T21:04:33.370Z,0.35
2022-09-02T21:09:54.015Z,0.40
2022-09-02T21:15:03.661Z,0.30
2022-09-02T21:20:19.397Z,0.40
2022-09-02T21:25:32.183Z,0.47
2022-09-02T21:30:42.836Z,0.50
2022-09-02T21:35:50.490Z,0.50
2022-09-02T21:41:14.200Z,0.43
2022-09-02T21:46:28.956Z,0.50
2022-09-02T21:51:39.640Z,0.40
2022-09-02T21:56:58.280Z,0.50
2022-09-02T22:02:12.042Z,0.50
2022-09-02T22:07:22.591Z,0.38
2022-09-02T22:12:30.506Z,0.57
2022-09-02T22:17:45.883Z,0.57
2022-09-02T22:22:56.102Z,0.50
2022-09-02T22:28:09.812Z,0.40
2022-09-02T22:33:19.145Z,0.40
2022-09-02T22:38:33.403Z,0.47
2022-09-02T22:43:47.402Z,0.50
2022-09-02T22:49:09.700Z,0.47
2022-09-02T22:54:14.428Z,0.45
2022-09-02T22:59:32.789Z,0.40
2022-09-02T23:04:53.231Z,0.52
2022-09-02T23:09:59.332Z,0.50
2022-09-02T23:15:22.233Z,0.60
2022-09-02T23:20:34.214Z,0.57
2022-09-02T23:26:09.943Z,0.60
2022-09-02T23:31:26.315Z,0.40
2022-09-02T23:36:42.786Z,0.60
2022-09-02T23:41:47.902Z,0.50
2022-09-02T23:47:07.028Z,0.70
2022-09-02T23:52:26.342Z,0.50
2022-09-02T23:57:46.377Z,0.50
